Time;durP1;ratioP1;P1;durP2;ratioP2;P2;SDS_P1;SDS_P2;PMS_P1;PMS_P2;Temp;Humidity;BMP_temperature;BMP_pressure;BME280_temperature;BME280_humidity;BME280_pressure;Samples;Min_cycle;Max_cycle;Signal;HPM_P1;HPM_P2
2024/02/29 00:02:13;;;;;;;47.93;25.27;;;;;;;;;;4414713;32;319393;-66
2024/02/29 00:04:39;;;;;;;29.63;15.77;;;;;;;;;;4404412;32;319278;-68
2024/02/29 00:07:06;;;;;;;21.00;14.07;;;;;;;;;;4410815;32;319449;-66
2024/02/29 00:09:33;;;;;;;32.97;16.03;;;;;;;;;;4414787;32;319254;-67
2024/02/29 00:12:01;;;;;;;37.37;17.80;;;;;;;;;;4404591;32;319745;-66
2024/02/29 00:14:28;;;;;;;18.83;10.67;;;;;;;;;;4414353;32;319263;-67
2024/02/29 00:16:57;;;;;;;24.97;11.40;;;;;;;;;;4401692;32;319400;-66
2024/02/29 00:19:24;;;;;;;21.07;10.47;;;;;;;;;;4413204;32;319434;-67
2024/02/29 00:21:50;;;;;;;17.00;9.00;;;;;;;;;;4402787;32;318634;-66
2024/02/29 00:24:17;;;;;;;21.17;8.83;;;;;;;;;;4412239;32;347044;-67
2024/02/29 00:26:44;;;;;;;19.27;9.10;;;;;;;;;;4404490;32;318163;-66
2024/02/29 00:29:12;;;;;;;16.00;9.80;;;;;;;;;;4412146;32;318232;-70
2024/02/29 00:31:43;;;;;;;22.93;11.37;;;;;;;;;;4404490;32;318264;-67
2024/02/29 00:34:10;;;;;;;27.37;15.00;;;;;;;;;;4414293;32;319217;-66
2024/02/29 00:36:36;;;;;;;21.50;10.50;;;;;;;;;;4403784;32;319752;-67
2024/02/29 00:39:03;;;;;;;21.30;11.23;;;;;;;;;;4409663;32;319174;-68
2024/02/29 00:41:30;;;;;;;19.93;10.47;;;;;;;;;;4414351;32;319502;-67
2024/02/29 00:43:57;;;;;;;22.43;11.13;;;;;;;;;;4404390;32;319417;-67
2024/02/29 00:46:25;;;;;;;34.10;19.33;;;;;;;;;;4412661;32;319745;-67
2024/02/29 00:48:52;;;;;;;29.00;17.60;;;;;;;;;;4399329;32;319682;-66
2024/02/29 00:51:19;;;;;;;25.30;13.10;;;;;;;;;;4413789;32;318842;-66
2024/02/29 00:53:46;;;;;;;18.50;10.50;;;;;;;;;;4404089;32;318801;-66
2024/02/29 00:56:13;;;;;;;23.27;12.23;;;;;;;;;;4412838;32;319336;-68
2024/02/29 00:58:40;;;;;;;16.40;9.93;;;;;;;;;;4401364;32;319322;-67
2024/02/29 01:01:06;;;;;;;22.47;10.77;;;;;;;;;;4411455;32;318449;-67
2024/02/29 01:03:35;;;;;;;21.93;10.87;;;;;;;;;;4412635;32;319208;-67
2024/02/29 01:06:04;;;;;;;30.87;14.97;;;;;;;;;;4400665;32;418629;-66
2024/02/29 01:08:31;;;;;;;24.00;14.77;;;;;;;;;;4413572;32;319642;-66
2024/02/29 01:10:57;;;;;;;20.93;14.20;;;;;;;;;;4400579;32;319440;-66
2024/02/29 01:13:24;;;;;;;22.67;13.43;;;;;;;;;;4412226;32;318724;-66
2024/02/29 01:15:51;;;;;;;26.37;12.77;;;;;;;;;;4403094;32;318768;-67
2024/02/29 01:18:20;;;;;;;22.87;13.00;;;;;;;;;;4413600;32;319321;-66
2024/02/29 01:20:48;;;;;;;31.47;13.83;;;;;;;;;;4402670;32;319396;-67
2024/02/29 01:23:15;;;;;;;21.50;14.57;;;;;;;;;;4411743;32;319303;-68
2024/02/29 01:25:42;;;;;;;29.60;13.07;;;;;;;;;;4401713;32;319638;-66
2024/02/29 01:28:09;;;;;;;25.07;15.17;;;;;;;;;;4413578;32;318877;-66
2024/02/29 01:30:35;;;;;;;26.43;15.60;;;;;;;;;;4420347;32;319118;-67
2024/02/29 01:33:02;;;;;;;27.20;15.37;;;;;;;;;;4397753;32;419459;-66
2024/02/29 01:35:29;;;;;;;25.80;14.87;;;;;;;;;;4412301;32;319572;-66
2024/02/29 01:37:57;;;;;;;35.63;16.30;;;;;;;;;;4403045;32;319335;-67
2024/02/29 01:40:24;;;;;;;28.37;16.90;;;;;;;;;;4412959;32;319399;-68
2024/02/29 01:42:51;;;;;;;30.50;18.13;;;;;;;;;;4400351;32;319213;-68
2024/02/29 01:45:18;;;;;;;27.37;16.90;;;;;;;;;;4411886;32;318613;-66
2024/02/29 01:47:45;;;;;;;36.60;17.63;;;;;;;;;;4403280;32;319567;-66
2024/02/29 01:50:13;;;;;;;36.93;18.83;;;;;;;;;;4412976;32;318724;-66
2024/02/29 01:52:41;;;;;;;34.13;20.10;;;;;;;;;;4401785;32;319717;-67
2024/02/29 01:55:10;;;;;;;29.43;18.70;;;;;;;;;;4410898;32;319496;-66
2024/02/29 01:57:39;;;;;;;33.47;17.47;;;;;;;;;;4402768;32;319730;-67
2024/02/29 02:00:08;;;;;;;27.13;16.30;;;;;;;;;;4411211;32;318718;-67
2024/02/29 02:02:36;;;;;;;27.03;14.33;;;;;;;;;;4411794;32;319274;-67
2024/02/29 02:05:03;;;;;;;27.57;13.87;;;;;;;;;;4397692;32;418431;-69
2024/02/29 02:07:30;;;;;;;20.57;12.93;;;;;;;;;;4411489;32;320063;-66
2024/02/29 02:09:56;;;;;;;26.50;13.47;;;;;;;;;;4401497;32;319153;-67
2024/02/29 02:12:25;;;;;;;20.30;12.97;;;;;;;;;;4411497;32;319465;-66
2024/02/29 02:14:51;;;;;;;25.20;14.53;;;;;;;;;;4399499;32;319355;-66
2024/02/29 02:17:18;;;;;;;26.47;14.60;;;;;;;;;;4412836;32;319302;-68
2024/02/29 02:19:45;;;;;;;21.27;14.10;;;;;;;;;;4402458;32;319232;-66
2024/02/29 02:22:13;;;;;;;23.00;14.40;;;;;;;;;;4412918;32;319344;-66
2024/02/29 02:24:40;;;;;;;28.23;17.20;;;;;;;;;;4402987;32;319614;-67
2024/02/29 02:27:07;;;;;;;26.27;15.43;;;;;;;;;;4410184;32;318946;-66
2024/02/29 02:29:33;;;;;;;34.03;17.90;;;;;;;;;;4411645;32;319508;-67
2024/02/29 02:32:00;;;;;;;39.03;22.07;;;;;;;;;;4402081;32;348271;-67
2024/02/29 02:34:30;;;;;;;45.77;25.77;;;;;;;;;;4412570;32;319474;-67
2024/02/29 02:36:57;;;;;;;59.47;29.00;;;;;;;;;;4399988;32;319673;-67
2024/02/29 02:39:25;;;;;;;44.37;26.77;;;;;;;;;;4411664;32;319315;-68
2024/02/29 02:41:51;;;;;;;46.80;25.67;;;;;;;;;;4400679;32;319385;-70
2024/02/29 02:44:18;;;;;;;46.70;24.57;;;;;;;;;;4412440;32;318685;-69
2024/02/29 02:46:45;;;;;;;50.17;28.43;;;;;;;;;;4402324;32;319624;-67
2024/02/29 02:49:11;;;;;;;41.60;23.60;;;;;;;;;;4408900;32;319472;-67
2024/02/29 02:51:38;;;;;;;26.23;17.60;;;;;;;;;;4399898;32;330762;-66
2024/02/29 02:54:05;;;;;;;38.60;20.37;;;;;;;;;;4412566;32;319299;-67
2024/02/29 02:56:33;;;;;;;31.20;17.43;;;;;;;;;;4411228;32;319513;-67
2024/02/29 02:59:00;;;;;;;32.90;18.23;;;;;;;;;;4400126;32;319461;-67
2024/02/29 03:01:27;;;;;;;34.07;18.40;;;;;;;;;;4412519;32;319541;-66
2024/02/29 03:03:55;;;;;;;25.77;16.83;;;;;;;;;;4401530;32;359687;-67
2024/02/29 03:06:21;;;;;;;25.93;17.40;;;;;;;;;;4410374;32;351602;-67
2024/02/29 03:08:48;;;;;;;22.43;16.90;;;;;;;;;;4400428;32;319480;-69
2024/02/29 03:11:15;;;;;;;31.93;17.10;;;;;;;;;;4412157;32;319630;-69
2024/02/29 03:13:43;;;;;;;30.53;17.63;;;;;;;;;;4401054;32;319511;-67
2024/02/29 03:16:10;;;;;;;31.80;13.90;;;;;;;;;;4411230;32;319481;-66
2024/02/29 03:18:37;;;;;;;22.40;15.90;;;;;;;;;;4408291;32;319552;-67
2024/02/29 03:21:06;;;;;;;28.63;16.90;;;;;;;;;;4411361;32;319408;-66
2024/02/29 03:23:32;;;;;;;28.30;16.47;;;;;;;;;;4413812;32;329595;-69
2024/02/29 03:25:59;;;;;;;30.77;17.23;;;;;;;;;;4405232;32;318761;-68
2024/02/29 03:28:26;;;;;;;29.50;18.57;;;;;;;;;;4413213;32;319045;-67
2024/02/29 03:30:55;;;;;;;33.83;19.57;;;;;;;;;;4401953;32;319891;-68
2024/02/29 03:33:21;;;;;;;24.53;17.33;;;;;;;;;;4414301;32;353293;-66
2024/02/29 03:35:48;;;;;;;32.87;18.70;;;;;;;;;;4404167;32;319446;-67
2024/02/29 03:38:16;;;;;;;33.07;18.37;;;;;;;;;;4414875;32;319319;-66
2024/02/29 03:40:43;;;;;;;28.13;17.00;;;;;;;;;;4405003;32;319717;-66
2024/02/29 03:43:10;;;;;;;24.33;16.43;;;;;;;;;;4412806;32;319483;-67
2024/02/29 03:45:37;;;;;;;22.47;15.57;;;;;;;;;;4405107;32;319438;-70
2024/02/29 03:48:06;;;;;;;24.50;14.37;;;;;;;;;;4414924;32;319027;-66
2024/02/29 03:50:32;;;;;;;30.30;14.37;;;;;;;;;;4413479;32;319458;-66
2024/02/29 03:52:58;;;;;;;25.93;14.03;;;;;;;;;;4402350;32;319426;-66
2024/02/29 03:55:25;;;;;;;31.33;14.83;;;;;;;;;;4414962;32;319913;-67
2024/02/29 03:57:52;;;;;;;26.27;14.73;;;;;;;;;;4403535;32;319719;-66
2024/02/29 04:00:19;;;;;;;22.60;14.13;;;;;;;;;;4413755;32;319567;-66
2024/02/29 04:02:46;;;;;;;22.70;13.73;;;;;;;;;;4403604;32;319475;-68
2024/02/29 04:05:14;;;;;;;20.33;13.70;;;;;;;;;;4410558;32;321602;-66
2024/02/29 04:07:41;;;;;;;23.17;13.53;;;;;;;;;;4402832;32;319326;-66
2024/02/29 04:10:09;;;;;;;23.37;15.10;;;;;;;;;;4414994;32;319292;-66
2024/02/29 04:12:36;;;;;;;26.00;15.40;;;;;;;;;;4414386;32;319486;-66
2024/02/29 04:15:03;;;;;;;21.23;14.27;;;;;;;;;;4399313;32;418459;-66
2024/02/29 04:17:30;;;;;;;27.90;13.83;;;;;;;;;;4414297;32;319472;-66
2024/02/29 04:19:57;;;;;;;26.87;14.93;;;;;;;;;;4403977;32;319776;-66
2024/02/29 04:22:25;;;;;;;24.87;16.00;;;;;;;;;;4413116;32;318982;-67
2024/02/29 04:24:52;;;;;;;78.20;40.87;;;;;;;;;;4400912;32;319471;-66
2024/02/29 04:27:18;;;;;;;93.43;48.57;;;;;;;;;;4412868;32;319248;-66
2024/02/29 04:29:46;;;;;;;74.77;44.57;;;;;;;;;;4404685;32;319473;-66
2024/02/29 04:32:13;;;;;;;44.00;28.53;;;;;;;;;;4414008;32;319457;-66
2024/02/29 04:34:40;;;;;;;58.60;30.23;;;;;;;;;;4402830;32;319509;-69
2024/02/29 04:37:07;;;;;;;165.93;71.17;;;;;;;;;;4410784;32;318841;-67
2024/02/29 04:39:35;;;;;;;195.30;80.67;;;;;;;;;;4413515;32;339823;-66
2024/02/29 04:42:03;;;;;;;137.37;60.30;;;;;;;;;;4401194;32;371836;-67
2024/02/29 04:44:30;;;;;;;129.80;61.40;;;;;;;;;;4412954;32;320402;-66
2024/02/29 04:46:56;;;;;;;109.87;50.93;;;;;;;;;;4399869;32;345690;-67
2024/02/29 04:49:23;;;;;;;88.00;43.53;;;;;;;;;;4413103;32;320512;-66
2024/02/29 04:51:50;;;;;;;90.83;39.67;;;;;;;;;;4403387;32;319429;-67
2024/02/29 04:54:17;;;;;;;47.00;26.97;;;;;;;;;;4412990;32;319587;-66
2024/02/29 04:56:46;;;;;;;42.03;24.13;;;;;;;;;;4401983;32;319630;-66
2024/02/29 04:59:13;;;;;;;36.37;22.50;;;;;;;;;;4410191;32;319352;-66
2024/02/29 05:01:39;;;;;;;34.63;21.60;;;;;;;;;;4401430;32;319707;-67
2024/02/29 05:04:06;;;;;;;42.87;22.57;;;;;;;;;;4413371;32;319425;-67
2024/02/29 05:06:33;;;;;;;42.07;23.73;;;;;;;;;;4412746;32;319727;-67
2024/02/29 05:09:00;;;;;;;36.60;21.10;;;;;;;;;;4399615;32;318827;-69
2024/02/29 05:11:27;;;;;;;41.97;23.73;;;;;;;;;;4413719;32;319348;-67
2024/02/29 05:13:55;;;;;;;41.67;24.10;;;;;;;;;;4403713;32;319609;-67
2024/02/29 05:16:21;;;;;;;36.80;23.53;;;;;;;;;;4413635;32;319334;-66
2024/02/29 05:18:51;;;;;;;35.60;23.40;;;;;;;;;;4403531;32;319475;-67
2024/02/29 05:21:21;;;;;;;47.17;25.47;;;;;;;;;;4411938;32;319299;-67
2024/02/29 05:23:48;;;;;;;37.33;24.47;;;;;;;;;;4403629;32;319521;-67
2024/02/29 05:26:14;;;;;;;42.63;25.07;;;;;;;;;;4412905;32;319609;-67
2024/02/29 05:28:41;;;;;;;43.50;26.10;;;;;;;;;;4403529;32;319571;-67
2024/02/29 05:31:09;;;;;;;57.83;32.27;;;;;;;;;;4410020;32;319718;-68
2024/02/29 05:33:37;;;;;;;69.07;38.00;;;;;;;;;;4412942;32;319743;-67
2024/02/29 05:36:04;;;;;;;69.07;35.20;;;;;;;;;;4400085;32;420170;-68
2024/02/29 05:38:31;;;;;;;63.73;36.07;;;;;;;;;;4413125;32;319618;-69
2024/02/29 05:40:58;;;;;;;73.20;38.83;;;;;;;;;;4399305;32;319736;-67
2024/02/29 05:43:25;;;;;;;64.70;36.67;;;;;;;;;;4410963;32;319682;-67
2024/02/29 05:45:52;;;;;;;71.23;36.27;;;;;;;;;;4402028;32;319642;-68
2024/02/29 05:48:20;;;;;;;122.60;67.87;;;;;;;;;;4411338;32;318977;-70
2024/02/29 05:50:47;;;;;;;129.53;74.13;;;;;;;;;;4401216;32;320543;-68
2024/02/29 05:53:14;;;;;;;122.70;70.40;;;;;;;;;;4409967;32;320643;-67
2024/02/29 05:55:41;;;;;;;108.30;64.77;;;;;;;;;;4402707;32;320236;-67
2024/02/29 05:58:08;;;;;;;109.40;66.10;;;;;;;;;;4411723;32;320660;-66
2024/02/29 06:00:35;;;;;;;107.47;59.33;;;;;;;;;;4412645;32;320796;-66
2024/02/29 06:03:02;;;;;;;77.30;45.90;;;;;;;;;;4400111;32;320459;-67
2024/02/29 06:05:31;;;;;;;78.83;38.33;;;;;;;;;;4411714;32;319144;-67
2024/02/29 06:07:57;;;;;;;54.90;29.80;;;;;;;;;;4402966;32;319574;-67
2024/02/29 06:10:27;;;;;;;66.17;30.07;;;;;;;;;;4412537;32;319498;-67
2024/02/29 06:12:54;;;;;;;54.63;28.60;;;;;;;;;;4400288;32;319482;-67
2024/02/29 06:15:21;;;;;;;45.33;25.60;;;;;;;;;;4411613;32;319431;-69
2024/02/29 06:17:49;;;;;;;48.63;28.67;;;;;;;;;;4400942;32;319284;-67
2024/02/29 06:20:16;;;;;;;49.23;27.43;;;;;;;;;;4410172;32;319436;-67
2024/02/29 06:22:44;;;;;;;52.23;28.50;;;;;;;;;;4400125;32;348016;-68
2024/02/29 06:25:11;;;;;;;52.73;30.40;;;;;;;;;;4409942;32;319330;-67
2024/02/29 06:27:39;;;;;;;53.17;31.73;;;;;;;;;;4402440;32;319516;-69
2024/02/29 06:30:08;;;;;;;60.93;34.87;;;;;;;;;;4411865;32;319670;-69
2024/02/29 06:32:34;;;;;;;60.60;37.03;;;;;;;;;;4412232;32;319562;-67
2024/02/29 06:35:01;;;;;;;57.87;35.33;;;;;;;;;;4400039;32;319519;-69
2024/02/29 06:37:28;;;;;;;56.13;31.43;;;;;;;;;;4412424;32;319377;-69
2024/02/29 06:39:58;;;;;;;68.00;31.73;;;;;;;;;;4401285;32;319600;-68
2024/02/29 06:42:24;;;;;;;51.57;29.20;;;;;;;;;;4412319;32;319484;-69
2024/02/29 06:44:52;;;;;;;49.17;26.83;;;;;;;;;;4400057;32;319767;-68
2024/02/29 06:47:19;;;;;;;46.63;27.03;;;;;;;;;;4409460;32;318762;-68
2024/02/29 06:49:46;;;;;;;52.77;28.87;;;;;;;;;;4401095;32;319303;-68
2024/02/29 06:52:13;;;;;;;53.03;27.83;;;;;;;;;;4410550;32;333412;-68
2024/02/29 06:54:41;;;;;;;53.23;25.93;;;;;;;;;;4402743;32;319925;-67
2024/02/29 06:57:09;;;;;;;56.27;26.27;;;;;;;;;;4412035;32;319459;-68
2024/02/29 06:59:36;;;;;;;39.63;24.33;;;;;;;;;;4415314;32;319667;-70
2024/02/29 07:02:03;;;;;;;36.17;20.40;;;;;;;;;;4400529;32;420350;-68
2024/02/29 07:04:29;;;;;;;62.90;21.53;;;;;;;;;;4415098;32;318520;-68
2024/02/29 07:06:56;;;;;;;47.40;20.83;;;;;;;;;;4402749;32;319433;-68
2024/02/29 07:09:23;;;;;;;46.90;21.10;;;;;;;;;;4414202;32;319566;-67
2024/02/29 07:11:49;;;;;;;40.73;22.83;;;;;;;;;;4403830;32;356751;-67
2024/02/29 07:14:17;;;;;;;47.70;27.07;;;;;;;;;;4415003;32;319482;-67
2024/02/29 07:16:46;;;;;;;70.60;35.60;;;;;;;;;;4404860;32;319509;-70
2024/02/29 07:19:13;;;;;;;62.63;33.53;;;;;;;;;;4412752;32;318873;-68
2024/02/29 07:21:39;;;;;;;59.53;33.97;;;;;;;;;;4404495;32;319475;-68
2024/02/29 07:24:07;;;;;;;69.17;36.43;;;;;;;;;;4414734;32;318909;-70
2024/02/29 07:26:34;;;;;;;75.73;36.43;;;;;;;;;;4414184;32;319446;-68
2024/02/29 07:29:00;;;;;;;57.17;31.67;;;;;;;;;;4401913;32;319478;-67
2024/02/29 07:31:28;;;;;;;60.73;31.70;;;;;;;;;;4414971;32;319474;-68
2024/02/29 07:33:55;;;;;;;68.07;32.37;;;;;;;;;;4405092;32;318823;-70
2024/02/29 07:36:23;;;;;;;53.20;33.83;;;;;;;;;;4414436;32;319200;-68
2024/02/29 07:38:50;;;;;;;56.03;29.90;;;;;;;;;;4402989;32;328935;-67
2024/02/29 07:41:16;;;;;;;45.07;25.73;;;;;;;;;;4412937;32;319126;-70
2024/02/29 07:43:43;;;;;;;44.80;27.53;;;;;;;;;;4404641;32;319569;-67
2024/02/29 07:46:10;;;;;;;50.70;28.73;;;;;;;;;;4411554;32;319468;-68
2024/02/29 07:48:38;;;;;;;58.43;28.10;;;;;;;;;;4396721;32;319734;-68
2024/02/29 07:51:05;;;;;;;41.57;25.00;;;;;;;;;;4414357;32;319677;-68
2024/02/29 07:53:32;;;;;;;37.70;24.13;;;;;;;;;;4404806;32;319459;-68
2024/02/29 07:55:59;;;;;;;51.73;26.93;;;;;;;;;;4412825;32;319643;-68
2024/02/29 07:58:26;;;;;;;46.23;25.53;;;;;;;;;;4404561;32;319387;-68
2024/02/29 08:00:53;;;;;;;59.23;25.33;;;;;;;;;;4412044;32;319458;-69
2024/02/29 08:03:19;;;;;;;39.83;23.80;;;;;;;;;;4404538;32;319641;-71
2024/02/29 08:05:48;;;;;;;48.47;23.73;;;;;;;;;;4413733;32;318812;-68
2024/02/29 08:08:14;;;;;;;47.23;25.53;;;;;;;;;;4414346;32;319870;-68
2024/02/29 08:10:41;;;;;;;50.47;27.00;;;;;;;;;;4401786;32;319733;-67
2024/02/29 08:13:08;;;;;;;56.93;34.57;;;;;;;;;;4413941;32;319175;-67
2024/02/29 08:15:35;;;;;;;66.20;36.47;;;;;;;;;;4402117;32;319573;-67
2024/02/29 08:18:02;;;;;;;68.97;37.47;;;;;;;;;;4413996;32;318336;-70
2024/02/29 08:20:28;;;;;;;72.97;38.17;;;;;;;;;;4402706;32;319533;-67
2024/02/29 08:22:57;;;;;;;58.70;35.77;;;;;;;;;;4411293;32;318774;-67
2024/02/29 08:25:25;;;;;;;52.47;31.60;;;;;;;;;;4403489;32;319394;-67
2024/02/29 08:27:53;;;;;;;76.73;37.70;;;;;;;;;;4413907;32;319339;-69
2024/02/29 08:30:20;;;;;;;48.63;33.93;;;;;;;;;;4403948;32;319771;-68
2024/02/29 08:32:48;;;;;;;51.23;30.10;;;;;;;;;;4411197;32;319603;-68
2024/02/29 08:35:15;;;;;;;53.10;27.03;;;;;;;;;;4412608;32;319474;-67
2024/02/29 08:37:43;;;;;;;49.17;26.93;;;;;;;;;;4401954;32;319982;-67
2024/02/29 08:40:11;;;;;;;42.70;27.10;;;;;;;;;;4413708;32;318952;-68
2024/02/29 08:42:38;;;;;;;40.80;27.53;;;;;;;;;;4401367;32;319912;-70
2024/02/29 08:45:06;;;;;;;52.33;33.73;;;;;;;;;;4411844;32;319482;-69
2024/02/29 08:47:33;;;;;;;71.07;37.73;;;;;;;;;;4401879;32;319301;-69
2024/02/29 08:50:00;;;;;;;73.30;44.60;;;;;;;;;;4412709;32;319484;-67
2024/02/29 08:52:26;;;;;;;73.40;45.17;;;;;;;;;;4403132;32;319458;-68
2024/02/29 08:54:53;;;;;;;77.70;47.97;;;;;;;;;;4411126;32;319655;-67
2024/02/29 08:57:22;;;;;;;76.17;47.37;;;;;;;;;;4402579;32;318830;-68
2024/02/29 08:59:51;;;;;;;98.70;59.07;;;;;;;;;;4413672;32;319528;-68
2024/02/29 09:02:18;;;;;;;95.90;55.37;;;;;;;;;;4412024;32;319025;-68
2024/02/29 09:04:44;;;;;;;85.37;51.80;;;;;;;;;;4398253;32;418563;-68
2024/02/29 09:07:11;;;;;;;81.20;49.47;;;;;;;;;;4413510;32;319871;-69
2024/02/29 09:09:41;;;;;;;82.13;47.97;;;;;;;;;;4402129;32;319612;-68
2024/02/29 09:12:09;;;;;;;88.23;45.00;;;;;;;;;;4411909;32;318939;-67
2024/02/29 09:14:38;;;;;;;74.80;43.27;;;;;;;;;;4398121;32;319325;-68
2024/02/29 09:17:06;;;;;;;83.37;47.50;;;;;;;;;;4412889;32;319645;-69
2024/02/29 09:19:32;;;;;;;68.93;47.23;;;;;;;;;;4403320;32;319448;-67
2024/02/29 09:21:59;;;;;;;86.27;54.00;;;;;;;;;;4412589;32;319495;-67
2024/02/29 09:24:26;;;;;;;71.20;47.73;;;;;;;;;;4401587;32;319290;-67
2024/02/29 09:26:53;;;;;;;58.17;38.00;;;;;;;;;;4410980;32;319406;-67
2024/02/29 09:29:19;;;;;;;80.93;49.70;;;;;;;;;;4403174;32;319495;-68
2024/02/29 09:31:47;;;;;;;57.97;41.63;;;;;;;;;;4411985;32;319524;-67
2024/02/29 09:34:16;;;;;;;59.27;37.10;;;;;;;;;;4412795;32;318868;-69
2024/02/29 09:36:45;;;;;;;58.93;37.40;;;;;;;;;;4400019;32;344020;-68
2024/02/29 09:39:11;;;;;;;63.87;38.63;;;;;;;;;;4412472;32;319403;-68
2024/02/29 09:41:38;;;;;;;65.97;39.27;;;;;;;;;;4401612;32;319868;-68
2024/02/29 09:44:07;;;;;;;60.33;32.37;;;;;;;;;;4411723;32;319021;-67
2024/02/29 09:46:33;;;;;;;33.23;21.27;;;;;;;;;;4399334;32;319493;-67
2024/02/29 09:49:04;;;;;;;41.37;25.10;;;;;;;;;;4411811;32;319457;-68
2024/02/29 09:51:32;;;;;;;43.57;23.73;;;;;;;;;;4402941;32;319283;-69
2024/02/29 09:53:59;;;;;;;25.80;18.30;;;;;;;;;;4411944;32;319346;-67
2024/02/29 09:56:29;;;;;;;28.87;18.30;;;;;;;;;;4402302;32;319462;-68
2024/02/29 09:58:58;;;;;;;31.57;14.83;;;;;;;;;;4410638;32;319444;-67
2024/02/29 10:01:26;;;;;;;24.03;13.00;;;;;;;;;;4402341;32;319381;-67
2024/02/29 10:03:55;;;;;;;29.60;14.67;;;;;;;;;;4410948;32;319378;-67
2024/02/29 10:06:23;;;;;;;30.17;15.27;;;;;;;;;;4399219;32;318760;-68
2024/02/29 10:08:50;;;;;;;32.80;15.37;;;;;;;;;;4409185;32;319374;-67
2024/02/29 10:11:17;;;;;;;25.73;15.83;;;;;;;;;;4412300;32;320032;-67
2024/02/29 10:13:44;;;;;;;35.50;16.53;;;;;;;;;;4402437;32;319601;-69
2024/02/29 10:16:11;;;;;;;36.33;17.77;;;;;;;;;;4412206;32;319548;-67
2024/02/29 10:18:38;;;;;;;49.70;19.30;;;;;;;;;;4399050;32;319275;-70
2024/02/29 10:21:15;;;;;;;26.90;15.97;;;;;;;;;;4410537;32;319336;-67
2024/02/29 10:23:44;;;;;;;34.13;17.50;;;;;;;;;;4399759;32;348914;-69
2024/02/29 10:26:10;;;;;;;33.70;16.67;;;;;;;;;;4412375;32;319273;-70
2024/02/29 10:28:37;;;;;;;24.43;15.50;;;;;;;;;;4396979;32;319246;-67
2024/02/29 10:31:04;;;;;;;24.53;14.83;;;;;;;;;;4411993;32;319027;-67
2024/02/29 10:33:32;;;;;;;32.57;15.10;;;;;;;;;;4402211;32;319199;-68
2024/02/29 10:36:09;;;;;;;22.87;14.43;;;;;;;;;;4411938;32;319317;-69
2024/02/29 10:38:37;;;;;;;21.47;12.93;;;;;;;;;;4399544;32;319328;-67
2024/02/29 10:41:08;;;;;;;27.47;12.93;;;;;;;;;;4411962;32;319511;-68
2024/02/29 10:43:37;;;;;;;26.97;12.87;;;;;;;;;;4402771;32;319318;-67
2024/02/29 10:46:05;;;;;;;28.33;13.33;;;;;;;;;;4411452;32;319420;-69
2024/02/29 10:48:46;;;;;;;25.55;13.00;;;;;;;;;;4399177;32;319150;-68
2024/02/29 10:51:21;;;;;;;21.92;13.00;;;;;;;;;;4410857;32;319501;-70
2024/02/29 10:53:59;;;;;;;22.13;11.30;;;;;;;;;;4398445;32;418250;-67
2024/02/29 10:56:29;;;;;;;27.43;11.77;;;;;;;;;;4402313;32;319446;-68
2024/02/29 10:59:05;;;;;;;18.07;12.33;;;;;;;;;;4409502;32;341765;-69
2024/02/29 11:01:32;;;;;;;19.73;11.67;;;;;;;;;;4402345;32;319381;-69
2024/02/29 11:03:59;;;;;;;19.47;11.67;;;;;;;;;;4411824;32;319441;-68
2024/02/29 11:06:27;;;;;;;20.67;10.47;;;;;;;;;;4400925;32;318703;-67
2024/02/29 11:08:55;;;;;;;25.87;11.27;;;;;;;;;;4407223;32;359357;-69
2024/02/29 11:11:22;;;;;;;14.97;9.07;;;;;;;;;;4400157;32;387063;-67
2024/02/29 11:13:50;;;;;;;19.37;10.17;;;;;;;;;;4411302;32;318356;-70
2024/02/29 11:16:19;;;;;;;20.17;9.27;;;;;;;;;;4411610;32;318620;-69
2024/02/29 11:18:47;;;;;;;21.70;9.83;;;;;;;;;;4390456;32;417349;-67
2024/02/29 11:21:14;;;;;;;15.70;8.37;;;;;;;;;;4418730;32;318014;-70
2024/02/29 11:23:41;;;;;;;19.70;9.47;;;;;;;;;;4401745;32;322650;-68
2024/02/29 11:26:10;;;;;;;18.87;9.50;;;;;;;;;;4411410;32;317743;-67
2024/02/29 11:28:38;;;;;;;19.13;9.63;;;;;;;;;;4398377;32;323280;-67
2024/02/29 11:31:12;;;;;;;17.07;8.57;;;;;;;;;;4410712;32;318544;-67
2024/02/29 11:33:39;;;;;;;15.47;8.57;;;;;;;;;;4400970;32;335308;-69
2024/02/29 11:36:06;;;;;;;15.80;8.27;;;;;;;;;;4412164;32;318540;-69
2024/02/29 11:38:34;;;;;;;31.43;17.23;;;;;;;;;;4398377;32;318373;-67
2024/02/29 11:41:01;;;;;;;35.70;17.75;;;;;;;;;;4411312;32;319417;-67
2024/02/29 11:43:28;;;;;;;19.03;7.80;;;;;;;;;;4403724;32;327972;-67
2024/02/29 11:45:55;;;;;;;15.65;9.93;;;;;;;;;;4415102;32;318319;-68
2024/02/29 11:48:23;;;;;;;13.25;8.25;;;;;;;;;;4404493;32;318331;-67
2024/02/29 11:50:50;;;;;;;13.93;8.05;;;;;;;;;;4412006;32;317777;-67
2024/02/29 11:53:17;;;;;;;23.50;9.88;;;;;;;;;;4410506;32;318314;-67
2024/02/29 11:55:44;;;;;;;22.85;8.30;;;;;;;;;;4409727;32;317750;-68
2024/02/29 11:58:11;;;;;;;19.52;8.90;;;;;;;;;;4412578;32;318454;-68
2024/02/29 12:00:38;;;;;;;16.35;8.23;;;;;;;;;;4400032;32;354493;-68
2024/02/29 12:03:05;;;;;;;19.83;8.32;;;;;;;;;;4414311;32;318432;-68
2024/02/29 12:05:34;;;;;;;13.10;7.30;;;;;;;;;;4402745;32;318379;-69
2024/02/29 12:08:01;;;;;;;14.35;7.97;;;;;;;;;;4413603;32;318453;-68
2024/02/29 12:10:28;;;;;;;14.85;7.30;;;;;;;;;;4404148;32;318603;-68
2024/02/29 12:12:55;;;;;;;19.08;7.50;;;;;;;;;;4412462;32;318558;-69
2024/02/29 12:15:22;;;;;;;10.63;7.03;;;;;;;;;;4404628;32;318512;-68
2024/02/29 12:17:48;;;;;;;18.12;8.32;;;;;;;;;;4412409;32;318379;-71
2024/02/29 12:20:16;;;;;;;13.13;7.18;;;;;;;;;;4412874;32;318357;-68
2024/02/29 12:22:48;;;;;;;20.05;7.43;;;;;;;;;;4401228;32;318465;-68
2024/02/29 12:25:15;;;;;;;18.08;9.23;;;;;;;;;;4412465;32;318479;-69
2024/02/29 12:27:42;;;;;;;13.10;6.97;;;;;;;;;;4403314;32;318145;-68
2024/02/29 12:30:11;;;;;;;14.05;8.50;;;;;;;;;;4413911;32;323574;-67
2024/02/29 12:32:38;;;;;;;14.48;8.48;;;;;;;;;;4401362;32;318596;-70
2024/02/29 12:35:08;;;;;;;18.23;6.30;;;;;;;;;;4413262;32;317897;-68
2024/02/29 12:37:38;;;;;;;17.52;7.03;;;;;;;;;;4404094;32;318433;-68
2024/02/29 12:40:08;;;;;;;11.57;7.53;;;;;;;;;;4414267;32;318481;-67
2024/02/29 12:42:35;;;;;;;13.95;7.35;;;;;;;;;;4401581;32;317825;-69
2024/02/29 12:45:02;;;;;;;16.55;7.30;;;;;;;;;;4414078;32;318792;-67
2024/02/29 12:47:29;;;;;;;12.60;6.95;;;;;;;;;;4402338;32;337045;-67
2024/02/29 12:49:56;;;;;;;12.85;8.20;;;;;;;;;;4413271;32;318271;-68
2024/02/29 12:52:23;;;;;;;10.38;7.37;;;;;;;;;;4403518;32;318235;-68
2024/02/29 12:54:49;;;;;;;16.12;7.45;;;;;;;;;;4411275;32;318559;-67
2024/02/29 12:57:18;;;;;;;15.60;8.35;;;;;;;;;;4412858;32;318277;-68
2024/02/29 12:59:44;;;;;;;34.30;16.65;;;;;;;;;;4400581;32;417659;-69
2024/02/29 13:02:11;;;;;;;18.77;8.77;;;;;;;;;;4412525;32;319350;-68
2024/02/29 13:04:38;;;;;;;25.55;9.48;;;;;;;;;;4400491;32;318846;-67
2024/02/29 13:07:05;;;;;;;27.25;11.18;;;;;;;;;;4413694;32;318892;-67
2024/02/29 13:09:32;;;;;;;29.70;11.70;;;;;;;;;;4403579;32;319203;-67
2024/02/29 13:11:59;;;;;;;19.45;9.80;;;;;;;;;;4413156;32;319511;-69
2024/02/29 13:14:27;;;;;;;21.23;9.32;;;;;;;;;;4403115;32;318313;-67
2024/02/29 13:16:53;;;;;;;14.40;8.10;;;;;;;;;;4410307;32;317854;-67
2024/02/29 13:19:20;;;;;;;23.40;5.85;;;;;;;;;;4400250;32;318722;-70
2024/02/29 13:21:47;;;;;;;11.02;5.93;;;;;;;;;;4412132;32;318322;-67
2024/02/29 13:24:14;;;;;;;20.55;7.30;;;;;;;;;;4413521;32;318435;-68
2024/02/29 13:26:41;;;;;;;36.92;17.55;;;;;;;;;;4400249;32;318253;-68
2024/02/29 13:29:07;;;;;;;18.65;8.48;;;;;;;;;;4412074;32;319351;-69
2024/02/29 13:31:35;;;;;;;18.27;8.83;;;;;;;;;;4401392;32;345797;-67
2024/02/29 13:34:03;;;;;;;13.57;7.45;;;;;;;;;;4412348;32;317616;-68
2024/02/29 13:36:30;;;;;;;17.77;7.20;;;;;;;;;;4402525;32;318196;-68
2024/02/29 13:38:56;;;;;;;122.37;88.55;;;;;;;;;;4413483;32;318478;-68
2024/02/29 13:41:22;;;;;;;11.77;8.48;;;;;;;;;;4403091;32;320593;-67
2024/02/29 13:43:49;;;;;;;21.58;8.18;;;;;;;;;;4412154;32;318191;-68
2024/02/29 13:46:16;;;;;;;9.68;5.30;;;;;;;;;;4411949;32;318137;-67
2024/02/29 13:48:47;;;;;;;9.10;4.72;;;;;;;;;;4401030;32;317762;-67
2024/02/29 13:51:14;;;;;;;15.32;5.22;;;;;;;;;;4412590;32;316908;-67
2024/02/29 13:53:41;;;;;;;17.73;5.37;;;;;;;;;;4402884;32;318249;-67
2024/02/29 13:56:08;;;;;;;12.88;5.50;;;;;;;;;;4413116;32;318243;-68
2024/02/29 13:58:35;;;;;;;27.70;16.90;;;;;;;;;;4400406;32;318368;-67
2024/02/29 14:01:02;;;;;;;10.02;6.20;;;;;;;;;;4412385;32;318916;-70
2024/02/29 14:03:29;;;;;;;9.68;4.37;;;;;;;;;;4402821;32;318415;-69
2024/02/29 14:05:57;;;;;;;29.83;14.20;;;;;;;;;;4412876;32;317146;-67
2024/02/29 14:08:24;;;;;;;8.00;5.00;;;;;;;;;;4402781;32;319335;-70